sensor_id;sensor_type;location;lat;lon;timestamp;P1;durP1;ratioP1;P2;durP2;ratioP2
30215;SDS011;17028;47.642;8.070;2022-07-10T00:04:47;2.40;;;1.20;;
30215;SDS011;17028;47.642;8.070;2022-07-10T00:09:48;1.98;;;1.20;;
30215;SDS011;17028;47.642;8.070;2022-07-10T00:14:49;2.92;;;1.40;;
30215;SDS011;17028;47.642;8.070;2022-07-10T00:19:50;1.98;;;1.20;;
30215;SDS011;17028;47.642;8.070;2022-07-10T00:24:51;2.05;;;1.23;;
30215;SDS011;17028;47.642;8.070;2022-07-10T00:29:52;1.95;;;1.27;;
30215;SDS011;17028;47.642;8.070;2022-07-10T00:34:53;2.63;;;1.38;;
30215;SDS011;17028;47.642;8.070;2022-07-10T00:39:54;1.67;;;1.27;;
30215;SDS011;17028;47.642;8.070;2022-07-10T00:44:56;1.60;;;1.20;;
30215;SDS011;17028;47.642;8.070;2022-07-10T00:49:57;1.60;;;1.13;;
30215;SDS011;17028;47.642;8.070;2022-07-10T00:54:58;1.58;;;1.00;;
30215;SDS011;17028;47.642;8.070;2022-07-10T00:59:59;1.00;;;0.90;;
30215;SDS011;17028;47.642;8.070;2022-07-10T01:05:00;1.30;;;1.00;;
30215;SDS011;17028;47.642;8.070;2022-07-10T01:10:02;1.48;;;1.00;;
30215;SDS011;17028;47.642;8.070;2022-07-10T01:15:03;1.92;;;1.05;;
30215;SDS011;17028;47.642;8.070;2022-07-10T01:20:06;2.28;;;1.20;;
30215;SDS011;17028;47.642;8.070;2022-07-10T01:25:08;3.60;;;1.33;;
30215;SDS011;17028;47.642;8.070;2022-07-10T01:30:11;1.60;;;1.13;;
30215;SDS011;17028;47.642;8.070;2022-07-10T01:35:12;1.73;;;1.20;;
30215;SDS011;17028;47.642;8.070;2022-07-10T01:40:14;2.10;;;1.13;;
30215;SDS011;17028;47.642;8.070;2022-07-10T01:45:15;2.50;;;1.20;;
30215;SDS011;17028;47.642;8.070;2022-07-10T01:50:17;2.13;;;1.10;;
30215;SDS011;17028;47.642;8.070;2022-07-10T01:55:18;1.55;;;1.15;;
30215;SDS011;17028;47.642;8.070;2022-07-10T02:00:19;1.92;;;1.17;;
30215;SDS011;17028;47.642;8.070;2022-07-10T02:05:20;1.88;;;1.35;;
30215;SDS011;17028;47.642;8.070;2022-07-10T02:10:21;1.55;;;1.17;;
30215;SDS011;17028;47.642;8.070;2022-07-10T02:15:22;1.35;;;1.10;;
30215;SDS011;17028;47.642;8.070;2022-07-10T02:20:23;1.40;;;1.17;;
30215;SDS011;17028;47.642;8.070;2022-07-10T02:25:24;1.40;;;0.95;;
30215;SDS011;17028;47.642;8.070;2022-07-10T02:30:25;1.52;;;0.98;;
30215;SDS011;17028;47.642;8.070;2022-07-10T02:35:26;2.92;;;1.10;;
30215;SDS011;17028;47.642;8.070;2022-07-10T02:40:27;1.77;;;1.27;;
30215;SDS011;17028;47.642;8.070;2022-07-10T02:45:28;2.10;;;1.30;;
30215;SDS011;17028;47.642;8.070;2022-07-10T02:50:29;2.22;;;1.20;;
30215;SDS011;17028;47.642;8.070;2022-07-10T02:55:30;1.92;;;1.23;;
30215;SDS011;17028;47.642;8.070;2022-07-10T03:00:32;1.30;;;1.05;;
30215;SDS011;17028;47.642;8.070;2022-07-10T03:05:33;2.83;;;1.30;;
30215;SDS011;17028;47.642;8.070;2022-07-10T03:10:34;1.30;;;1.10;;
30215;SDS011;17028;47.642;8.070;2022-07-10T03:15:35;1.50;;;1.10;;
30215;SDS011;17028;47.642;8.070;2022-07-10T03:20:36;1.55;;;1.00;;
30215;SDS011;17028;47.642;8.070;2022-07-10T03:25:37;2.22;;;1.05;;
30215;SDS011;17028;47.642;8.070;2022-07-10T03:30:38;1.38;;;1.10;;
30215;SDS011;17028;47.642;8.070;2022-07-10T03:35:39;1.20;;;1.00;;
30215;SDS011;17028;47.642;8.070;2022-07-10T03:40:40;1.42;;;1.10;;
30215;SDS011;17028;47.642;8.070;2022-07-10T03:45:41;2.15;;;1.50;;
30215;SDS011;17028;47.642;8.070;2022-07-10T03:50:43;3.45;;;1.80;;
30215;SDS011;17028;47.642;8.070;2022-07-10T03:55:44;2.30;;;1.55;;
30215;SDS011;17028;47.642;8.070;2022-07-10T04:00:45;1.92;;;1.48;;
30215;SDS011;17028;47.642;8.070;2022-07-10T04:05:46;2.47;;;1.50;;
30215;SDS011;17028;47.642;8.070;2022-07-10T04:10:47;2.17;;;1.50;;
30215;SDS011;17028;47.642;8.070;2022-07-10T04:15:49;3.22;;;2.00;;
30215;SDS011;17028;47.642;8.070;2022-07-10T04:20:50;3.13;;;1.95;;
30215;SDS011;17028;47.642;8.070;2022-07-10T04:25:51;3.63;;;1.98;;
30215;SDS011;17028;47.642;8.070;2022-07-10T04:30:52;2.63;;;1.95;;
30215;SDS011;17028;47.642;8.070;2022-07-10T04:35:53;2.50;;;1.73;;
30215;SDS011;17028;47.642;8.070;2022-07-10T04:40:54;2.42;;;1.70;;
30215;SDS011;17028;47.642;8.070;2022-07-10T04:45:55;2.25;;;1.67;;
30215;SDS011;17028;47.642;8.070;2022-07-10T04:50:56;2.15;;;1.67;;
30215;SDS011;17028;47.642;8.070;2022-07-10T04:55:58;2.17;;;1.73;;
30215;SDS011;17028;47.642;8.070;2022-07-10T05:00:59;2.30;;;1.70;;
30215;SDS011;17028;47.642;8.070;2022-07-10T05:06:00;2.60;;;1.75;;
30215;SDS011;17028;47.642;8.070;2022-07-10T05:11:01;2.53;;;1.55;;
30215;SDS011;17028;47.642;8.070;2022-07-10T05:16:03;2.42;;;1.70;;
30215;SDS011;17028;47.642;8.070;2022-07-10T05:21:05;3.13;;;1.63;;
30215;SDS011;17028;47.642;8.070;2022-07-10T05:26:06;2.45;;;1.65;;
30215;SDS011;17028;47.642;8.070;2022-07-10T05:31:07;2.03;;;1.40;;
30215;SDS011;17028;47.642;8.070;2022-07-10T05:36:09;2.55;;;1.88;;
30215;SDS011;17028;47.642;8.070;2022-07-10T05:41:10;2.28;;;1.80;;
30215;SDS011;17028;47.642;8.070;2022-07-10T05:46:11;2.95;;;1.60;;
30215;SDS011;17028;47.642;8.070;2022-07-10T05:51:13;2.17;;;1.55;;
30215;SDS011;17028;47.642;8.070;2022-07-10T05:56:14;2.20;;;1.55;;
30215;SDS011;17028;47.642;8.070;2022-07-10T06:01:15;2.42;;;1.52;;
30215;SDS011;17028;47.642;8.070;2022-07-10T06:06:16;1.77;;;1.38;;
30215;SDS011;17028;47.642;8.070;2022-07-10T06:11:17;2.42;;;1.67;;
30215;SDS011;17028;47.642;8.070;2022-07-10T06:16:18;3.15;;;1.92;;
30215;SDS011;17028;47.642;8.070;2022-07-10T06:21:19;3.05;;;1.80;;
30215;SDS011;17028;47.642;8.070;2022-07-10T06:26:22;2.30;;;1.70;;
30215;SDS011;17028;47.642;8.070;2022-07-10T06:31:23;2.80;;;1.85;;
30215;SDS011;17028;47.642;8.070;2022-07-10T06:36:24;3.83;;;2.30;;
30215;SDS011;17028;47.642;8.070;2022-07-10T06:41:25;3.45;;;2.30;;
30215;SDS011;17028;47.642;8.070;2022-07-10T06:46:26;3.53;;;2.40;;
30215;SDS011;17028;47.642;8.070;2022-07-10T06:51:27;3.60;;;2.60;;
30215;SDS011;17028;47.642;8.070;2022-07-10T06:56:28;3.78;;;2.75;;
30215;SDS011;17028;47.642;8.070;2022-07-10T07:01:29;3.45;;;2.40;;
30215;SDS011;17028;47.642;8.070;2022-07-10T07:06:30;3.70;;;2.42;;
30215;SDS011;17028;47.642;8.070;2022-07-10T07:11:31;4.07;;;2.40;;
30215;SDS011;17028;47.642;8.070;2022-07-10T07:16:32;4.22;;;2.15;;
30215;SDS011;17028;47.642;8.070;2022-07-10T07:21:43;3.72;;;2.55;;
30215;SDS011;17028;47.642;8.070;2022-07-10T07:27:03;4.68;;;2.35;;
30215;SDS011;17028;47.642;8.070;2022-07-10T07:32:04;3.30;;;2.03;;
30215;SDS011;17028;47.642;8.070;2022-07-10T07:37:05;4.53;;;2.20;;
30215;SDS011;17028;47.642;8.070;2022-07-10T07:42:06;3.17;;;2.25;;
30215;SDS011;17028;47.642;8.070;2022-07-10T07:47:07;3.33;;;2.10;;
30215;SDS011;17028;47.642;8.070;2022-07-10T07:52:08;4.45;;;2.00;;
30215;SDS011;17028;47.642;8.070;2022-07-10T07:57:09;4.18;;;2.38;;
30215;SDS011;17028;47.642;8.070;2022-07-10T08:02:10;7.18;;;2.10;;
30215;SDS011;17028;47.642;8.070;2022-07-10T08:07:11;5.22;;;2.40;;
30215;SDS011;17028;47.642;8.070;2022-07-10T08:12:12;3.05;;;2.10;;
30215;SDS011;17028;47.642;8.070;2022-07-10T08:17:13;2.95;;;1.90;;
30215;SDS011;17028;47.642;8.070;2022-07-10T08:22:14;3.53;;;2.20;;
30215;SDS011;17028;47.642;8.070;2022-07-10T08:27:15;3.50;;;2.40;;
30215;SDS011;17028;47.642;8.070;2022-07-10T08:32:16;3.22;;;1.95;;
30215;SDS011;17028;47.642;8.070;2022-07-10T08:37:18;4.13;;;2.17;;
30215;SDS011;17028;47.642;8.070;2022-07-10T08:42:20;5.50;;;2.58;;
30215;SDS011;17028;47.642;8.070;2022-07-10T08:47:21;5.10;;;3.03;;
30215;SDS011;17028;47.642;8.070;2022-07-10T08:52:33;4.10;;;2.28;;
30215;SDS011;17028;47.642;8.070;2022-07-10T08:57:51;3.78;;;2.20;;
30215;SDS011;17028;47.642;8.070;2022-07-10T09:02:53;4.95;;;2.85;;
30215;SDS011;17028;47.642;8.070;2022-07-10T09:07:55;4.10;;;2.80;;
30215;SDS011;17028;47.642;8.070;2022-07-10T09:12:58;4.78;;;2.85;;
30215;SDS011;17028;47.642;8.070;2022-07-10T09:18:05;4.93;;;2.50;;
30215;SDS011;17028;47.642;8.070;2022-07-10T09:28:18;6.07;;;3.00;;
30215;SDS011;17028;47.642;8.070;2022-07-10T09:38:26;7.22;;;2.60;;
30215;SDS011;17028;47.642;8.070;2022-07-10T09:43:52;4.28;;;2.80;;
30215;SDS011;17028;47.642;8.070;2022-07-10T09:49:08;3.30;;;2.42;;
30215;SDS011;17028;47.642;8.070;2022-07-10T09:54:10;3.78;;;2.65;;
30215;SDS011;17028;47.642;8.070;2022-07-10T09:59:15;4.22;;;2.80;;
30215;SDS011;17028;47.642;8.070;2022-07-10T10:04:18;4.90;;;3.00;;
30215;SDS011;17028;47.642;8.070;2022-07-10T10:14:39;5.25;;;3.55;;
30215;SDS011;17028;47.642;8.070;2022-07-10T10:19:41;5.45;;;2.95;;
30215;SDS011;17028;47.642;8.070;2022-07-10T10:25:01;6.65;;;3.03;;
30215;SDS011;17028;47.642;8.070;2022-07-10T10:30:04;7.70;;;3.63;;
30215;SDS011;17028;47.642;8.070;2022-07-10T10:35:06;4.82;;;3.13;;
30215;SDS011;17028;47.642;8.070;2022-07-10T10:40:10;5.95;;;3.03;;
30215;SDS011;17028;47.642;8.070;2022-07-10T10:45:32;5.80;;;3.00;;
30215;SDS011;17028;47.642;8.070;2022-07-10T10:50:49;3.75;;;2.60;;
30215;SDS011;17028;47.642;8.070;2022-07-10T11:01:04;4.13;;;2.50;;
30215;SDS011;17028;47.642;8.070;2022-07-10T11:06:06;3.13;;;2.22;;
30215;SDS011;17028;47.642;8.070;2022-07-10T11:16:31;3.45;;;2.38;;
30215;SDS011;17028;47.642;8.070;2022-07-10T11:21:37;2.97;;;2.53;;
30215;SDS011;17028;47.642;8.070;2022-07-10T11:31:55;3.45;;;2.22;;
30215;SDS011;17028;47.642;8.070;2022-07-10T11:36:56;3.75;;;2.55;;
30215;SDS011;17028;47.642;8.070;2022-07-10T11:41:57;3.78;;;2.65;;
30215;SDS011;17028;47.642;8.070;2022-07-10T11:46:59;4.35;;;2.30;;
30215;SDS011;17028;47.642;8.070;2022-07-10T11:52:02;2.80;;;2.20;;
30215;SDS011;17028;47.642;8.070;2022-07-10T11:57:05;3.42;;;2.10;;
30215;SDS011;17028;47.642;8.070;2022-07-10T12:02:08;2.70;;;2.17;;
30215;SDS011;17028;47.642;8.070;2022-07-10T12:07:09;3.92;;;1.90;;
30215;SDS011;17028;47.642;8.070;2022-07-10T12:12:10;3.58;;;2.08;;
30215;SDS011;17028;47.642;8.070;2022-07-10T12:17:11;4.18;;;2.35;;
30215;SDS011;17028;47.642;8.070;2022-07-10T12:22:13;3.13;;;2.20;;
30215;SDS011;17028;47.642;8.070;2022-07-10T12:27:59;2.90;;;2.00;;
30215;SDS011;17028;47.642;8.070;2022-07-10T12:32:42;3.85;;;2.15;;
30215;SDS011;17028;47.642;8.070;2022-07-10T12:37:49;2.78;;;1.90;;
30215;SDS011;17028;47.642;8.070;2022-07-10T12:42:50;3.42;;;2.25;;
30215;SDS011;17028;47.642;8.070;2022-07-10T12:48:01;3.35;;;2.13;;
30215;SDS011;17028;47.642;8.070;2022-07-10T12:53:07;3.67;;;2.10;;
30215;SDS011;17028;47.642;8.070;2022-07-10T12:58:10;3.00;;;2.00;;
30215;SDS011;17028;47.642;8.070;2022-07-10T13:03:16;3.90;;;2.13;;
30215;SDS011;17028;47.642;8.070;2022-07-10T13:08:22;4.93;;;1.70;;
30215;SDS011;17028;47.642;8.070;2022-07-10T13:13:25;3.95;;;2.10;;
30215;SDS011;17028;47.642;8.070;2022-07-10T13:18:26;3.80;;;2.00;;
30215;SDS011;17028;47.642;8.070;2022-07-10T13:23:28;4.35;;;1.77;;
30215;SDS011;17028;47.642;8.070;2022-07-10T13:28:29;3.92;;;2.30;;
30215;SDS011;17028;47.642;8.070;2022-07-10T13:33:31;2.97;;;1.70;;
30215;SDS011;17028;47.642;8.070;2022-07-10T13:38:32;3.42;;;1.75;;
30215;SDS011;17028;47.642;8.070;2022-07-10T13:43:35;4.00;;;1.90;;
30215;SDS011;17028;47.642;8.070;2022-07-10T13:48:36;2.47;;;1.83;;
30215;SDS011;17028;47.642;8.070;2022-07-10T13:53:37;3.22;;;1.73;;
30215;SDS011;17028;47.642;8.070;2022-07-10T13:58:38;4.18;;;2.10;;
30215;SDS011;17028;47.642;8.070;2022-07-10T14:03:39;3.13;;;1.77;;
30215;SDS011;17028;47.642;8.070;2022-07-10T14:08:40;4.03;;;1.90;;
30215;SDS011;17028;47.642;8.070;2022-07-10T14:13:41;7.40;;;2.05;;
30215;SDS011;17028;47.642;8.070;2022-07-10T14:18:42;4.50;;;1.75;;
30215;SDS011;17028;47.642;8.070;2022-07-10T14:23:44;2.38;;;1.70;;
30215;SDS011;17028;47.642;8.070;2022-07-10T14:28:45;1.90;;;1.42;;
30215;SDS011;17028;47.642;8.070;2022-07-10T14:33:47;3.13;;;1.90;;
30215;SDS011;17028;47.642;8.070;2022-07-10T14:38:48;4.28;;;1.50;;
30215;SDS011;17028;47.642;8.070;2022-07-10T14:43:49;1.92;;;1.45;;
30215;SDS011;17028;47.642;8.070;2022-07-10T14:48:50;3.50;;;1.80;;
30215;SDS011;17028;47.642;8.070;2022-07-10T14:53:52;3.83;;;1.80;;
30215;SDS011;17028;47.642;8.070;2022-07-10T14:58:54;2.65;;;1.50;;
30215;SDS011;17028;47.642;8.070;2022-07-10T15:03:55;2.60;;;1.42;;
30215;SDS011;17028;47.642;8.070;2022-07-10T15:08:58;3.40;;;1.33;;
30215;SDS011;17028;47.642;8.070;2022-07-10T15:13:59;2.30;;;1.10;;
30215;SDS011;17028;47.642;8.070;2022-07-10T15:19:01;1.80;;;1.10;;
30215;SDS011;17028;47.642;8.070;2022-07-10T15:24:02;2.45;;;1.20;;
30215;SDS011;17028;47.642;8.070;2022-07-10T15:29:04;2.47;;;1.27;;
30215;SDS011;17028;47.642;8.070;2022-07-10T15:34:07;1.73;;;1.10;;
30215;SDS011;17028;47.642;8.070;2022-07-10T15:39:09;1.73;;;1.02;;
30215;SDS011;17028;47.642;8.070;2022-07-10T15:44:10;3.28;;;1.23;;
30215;SDS011;17028;47.642;8.070;2022-07-10T15:49:11;1.13;;;0.90;;
30215;SDS011;17028;47.642;8.070;2022-07-10T15:54:12;1.52;;;1.10;;
30215;SDS011;17028;47.642;8.070;2022-07-10T15:59:13;1.75;;;1.10;;
30215;SDS011;17028;47.642;8.070;2022-07-10T16:04:14;2.35;;;1.20;;
30215;SDS011;17028;47.642;8.070;2022-07-10T16:09:15;2.00;;;0.95;;
30215;SDS011;17028;47.642;8.070;2022-07-10T16:14:17;1.80;;;0.73;;
30215;SDS011;17028;47.642;8.070;2022-07-10T16:19:19;1.50;;;1.00;;
30215;SDS011;17028;47.642;8.070;2022-07-10T16:24:20;1.92;;;1.02;;
30215;SDS011;17028;47.642;8.070;2022-07-10T16:29:22;1.35;;;1.00;;
30215;SDS011;17028;47.642;8.070;2022-07-10T16:34:25;1.80;;;1.02;;
30215;SDS011;17028;47.642;8.070;2022-07-10T16:39:26;1.65;;;0.80;;
30215;SDS011;17028;47.642;8.070;2022-07-10T16:44:27;1.52;;;1.02;;
30215;SDS011;17028;47.642;8.070;2022-07-10T16:49:28;2.25;;;1.10;;
30215;SDS011;17028;47.642;8.070;2022-07-10T16:54:29;1.23;;;0.80;;
30215;SDS011;17028;47.642;8.070;2022-07-10T16:59:30;1.23;;;0.73;;
30215;SDS011;17028;47.642;8.070;2022-07-10T17:04:31;2.30;;;0.95;;
30215;SDS011;17028;47.642;8.070;2022-07-10T17:09:39;1.83;;;0.90;;
30215;SDS011;17028;47.642;8.070;2022-07-10T17:14:40;2.40;;;1.10;;
30215;SDS011;17028;47.642;8.070;2022-07-10T17:19:41;1.52;;;0.90;;
30215;SDS011;17028;47.642;8.070;2022-07-10T17:24:42;2.47;;;0.88;;
30215;SDS011;17028;47.642;8.070;2022-07-10T17:29:43;2.10;;;1.05;;
30215;SDS011;17028;47.642;8.070;2022-07-10T17:34:45;1.58;;;0.80;;
30215;SDS011;17028;47.642;8.070;2022-07-10T17:39:46;1.25;;;0.90;;
30215;SDS011;17028;47.642;8.070;2022-07-10T17:44:47;2.35;;;0.80;;
30215;SDS011;17028;47.642;8.070;2022-07-10T17:49:48;1.80;;;0.77;;
30215;SDS011;17028;47.642;8.070;2022-07-10T17:54:49;2.55;;;0.70;;
30215;SDS011;17028;47.642;8.070;2022-07-10T17:59:51;1.73;;;0.90;;
30215;SDS011;17028;47.642;8.070;2022-07-10T18:04:52;0.75;;;0.60;;
30215;SDS011;17028;47.642;8.070;2022-07-10T18:09:53;1.20;;;0.68;;
30215;SDS011;17028;47.642;8.070;2022-07-10T18:14:54;1.23;;;0.68;;
30215;SDS011;17028;47.642;8.070;2022-07-10T18:19:55;1.45;;;0.63;;
30215;SDS011;17028;47.642;8.070;2022-07-10T18:25:00;0.80;;;0.70;;
30215;SDS011;17028;47.642;8.070;2022-07-10T18:30:01;1.42;;;0.90;;
30215;SDS011;17028;47.642;8.070;2022-07-10T18:35:03;1.95;;;0.90;;
30215;SDS011;17028;47.642;8.070;2022-07-10T18:40:05;0.60;;;0.60;;
30215;SDS011;17028;47.642;8.070;2022-07-10T18:45:06;0.70;;;0.60;;
30215;SDS011;17028;47.642;8.070;2022-07-10T18:50:08;0.82;;;0.60;;
30215;SDS011;17028;47.642;8.070;2022-07-10T18:55:09;0.45;;;0.40;;
30215;SDS011;17028;47.642;8.070;2022-07-10T19:00:11;1.27;;;0.60;;
30215;SDS011;17028;47.642;8.070;2022-07-10T19:05:12;1.13;;;0.60;;
30215;SDS011;17028;47.642;8.070;2022-07-10T19:10:13;0.65;;;0.55;;
30215;SDS011;17028;47.642;8.070;2022-07-10T19:15:14;1.63;;;0.65;;
30215;SDS011;17028;47.642;8.070;2022-07-10T19:20:16;0.98;;;0.55;;
30215;SDS011;17028;47.642;8.070;2022-07-10T19:25:17;1.00;;;0.60;;
30215;SDS011;17028;47.642;8.070;2022-07-10T19:30:18;1.83;;;0.70;;
30215;SDS011;17028;47.642;8.070;2022-07-10T19:35:19;1.10;;;0.55;;
30215;SDS011;17028;47.642;8.070;2022-07-10T19:40:20;1.58;;;0.70;;
30215;SDS011;17028;47.642;8.070;2022-07-10T19:45:21;1.45;;;0.50;;
30215;SDS011;17028;47.642;8.070;2022-07-10T19:50:23;0.98;;;0.50;;
30215;SDS011;17028;47.642;8.070;2022-07-10T19:55:25;0.98;;;0.50;;
30215;SDS011;17028;47.642;8.070;2022-07-10T20:00:26;2.08;;;0.63;;
30215;SDS011;17028;47.642;8.070;2022-07-10T20:05:27;1.67;;;0.65;;
30215;SDS011;17028;47.642;8.070;2022-07-10T20:10:29;1.63;;;0.70;;
30215;SDS011;17028;47.642;8.070;2022-07-10T20:15:30;1.00;;;0.60;;
30215;SDS011;17028;47.642;8.070;2022-07-10T20:20:31;0.93;;;0.40;;
30215;SDS011;17028;47.642;8.070;2022-07-10T20:25:32;1.23;;;0.55;;
30215;SDS011;17028;47.642;8.070;2022-07-10T20:30:33;3.88;;;0.73;;
30215;SDS011;17028;47.642;8.070;2022-07-10T20:35:34;1.77;;;0.70;;
30215;SDS011;17028;47.642;8.070;2022-07-10T20:40:35;2.78;;;0.82;;
30215;SDS011;17028;47.642;8.070;2022-07-10T20:45:36;1.90;;;0.70;;
30215;SDS011;17028;47.642;8.070;2022-07-10T20:50:37;1.45;;;0.55;;
30215;SDS011;17028;47.642;8.070;2022-07-10T20:55:39;1.88;;;0.88;;
30215;SDS011;17028;47.642;8.070;2022-07-10T21:00:40;1.02;;;0.52;;
30215;SDS011;17028;47.642;8.070;2022-07-10T21:05:41;1.38;;;0.70;;
30215;SDS011;17028;47.642;8.070;2022-07-10T21:10:42;1.83;;;0.85;;
30215;SDS011;17028;47.642;8.070;2022-07-10T21:15:44;1.63;;;0.80;;
30215;SDS011;17028;47.642;8.070;2022-07-10T21:20:45;0.70;;;0.50;;
30215;SDS011;17028;47.642;8.070;2022-07-10T21:25:49;1.75;;;0.93;;
30215;SDS011;17028;47.642;8.070;2022-07-10T21:30:50;0.98;;;0.63;;
30215;SDS011;17028;47.642;8.070;2022-07-10T21:35:51;1.63;;;0.82;;
30215;SDS011;17028;47.642;8.070;2022-07-10T21:40:52;2.40;;;0.85;;
30215;SDS011;17028;47.642;8.070;2022-07-10T21:45:53;2.53;;;0.88;;
30215;SDS011;17028;47.642;8.070;2022-07-10T21:50:54;1.27;;;0.70;;
30215;SDS011;17028;47.642;8.070;2022-07-10T21:55:55;1.95;;;0.82;;
30215;SDS011;17028;47.642;8.070;2022-07-10T22:00:56;1.30;;;0.80;;
30215;SDS011;17028;47.642;8.070;2022-07-10T22:05:58;1.95;;;0.95;;
30215;SDS011;17028;47.642;8.070;2022-07-10T22:10:59;0.90;;;0.65;;
30215;SDS011;17028;47.642;8.070;2022-07-10T22:16:00;1.20;;;0.70;;
30215;SDS011;17028;47.642;8.070;2022-07-10T22:21:01;2.20;;;0.88;;
30215;SDS011;17028;47.642;8.070;2022-07-10T22:26:02;2.05;;;0.85;;
30215;SDS011;17028;47.642;8.070;2022-07-10T22:31:03;0.68;;;0.60;;
30215;SDS011;17028;47.642;8.070;2022-07-10T22:36:25;0.80;;;0.70;;
30215;SDS011;17028;47.642;8.070;2022-07-10T22:41:26;1.00;;;0.60;;
30215;SDS011;17028;47.642;8.070;2022-07-10T22:46:27;0.82;;;0.60;;
30215;SDS011;17028;47.642;8.070;2022-07-10T22:51:28;1.40;;;0.75;;
30215;SDS011;17028;47.642;8.070;2022-07-10T22:56:29;1.23;;;0.75;;
30215;SDS011;17028;47.642;8.070;2022-07-10T23:01:31;1.50;;;0.80;;
30215;SDS011;17028;47.642;8.070;2022-07-10T23:06:32;1.85;;;0.88;;
30215;SDS011;17028;47.642;8.070;2022-07-10T23:11:33;1.83;;;0.80;;
30215;SDS011;17028;47.642;8.070;2022-07-10T23:16:34;4.13;;;0.90;;
30215;SDS011;17028;47.642;8.070;2022-07-10T23:21:35;1.75;;;0.80;;
30215;SDS011;17028;47.642;8.070;2022-07-10T23:26:36;1.85;;;0.93;;
30215;SDS011;17028;47.642;8.070;2022-07-10T23:31:38;2.53;;;0.98;;
30215;SDS011;17028;47.642;8.070;2022-07-10T23:36:39;2.45;;;0.80;;
30215;SDS011;17028;47.642;8.070;2022-07-10T23:41:40;2.35;;;0.70;;
30215;SDS011;17028;47.642;8.070;2022-07-10T23:46:41;2.35;;;0.80;;
30215;SDS011;17028;47.642;8.070;2022-07-10T23:51:42;2.55;;;1.00;;
30215;SDS011;17028;47.642;8.070;2022-07-10T23:56:43;2.17;;;1.00;;
